sensor_id;sensor_type;location;lat;lon;timestamp;pressure;altitude;pressure_sealevel;temperature;humidity
83025;BME280;72958;53.326;-1.496;2024-03-08T00:01:03;99551.95;;;7.90;40.02
83025;BME280;72958;53.326;-1.496;2024-03-08T00:03:40;99552.98;;;8.04;41.34
83025;BME280;72958;53.326;-1.496;2024-03-08T00:06:22;99549.76;;;7.98;41.10
83025;BME280;72958;53.326;-1.496;2024-03-08T00:09:03;99549.78;;;8.05;40.97
83025;BME280;72958;53.326;-1.496;2024-03-08T00:12:21;99549.52;;;6.97;42.79
83025;BME280;72958;53.326;-1.496;2024-03-08T00:15:13;99537.90;;;7.67;42.04
83025;BME280;72958;53.326;-1.496;2024-03-08T00:17:53;99536.28;;;8.11;41.00
83025;BME280;72958;53.326;-1.496;2024-03-08T00:20:18;99529.62;;;7.82;41.27
83025;BME280;72958;53.326;-1.496;2024-03-08T00:22:43;99527.50;;;8.03;41.62
83025;BME280;72958;53.326;-1.496;2024-03-08T00:25:14;99528.62;;;8.01;41.78
83025;BME280;72958;53.326;-1.496;2024-03-08T00:28:20;99526.44;;;7.64;42.01
83025;BME280;72958;53.326;-1.496;2024-03-08T00:31:09;99520.76;;;7.13;42.93
83025;BME280;72958;53.326;-1.496;2024-03-08T00:33:47;99518.97;;;7.47;43.39
83025;BME280;72958;53.326;-1.496;2024-03-08T00:36:20;99517.80;;;7.58;43.29
83025;BME280;72958;53.326;-1.496;2024-03-08T00:39:08;99518.59;;;7.53;43.56
83025;BME280;72958;53.326;-1.496;2024-03-08T00:41:38;99513.51;;;7.92;43.17
83025;BME280;72958;53.326;-1.496;2024-03-08T00:44:22;99507.07;;;7.72;43.38
83025;BME280;72958;53.326;-1.496;2024-03-08T00:47:13;99503.60;;;7.68;43.27
83025;BME280;72958;53.326;-1.496;2024-03-08T00:49:41;99500.82;;;7.68;43.42
83025;BME280;72958;53.326;-1.496;2024-03-08T00:52:14;99495.89;;;7.82;43.29
83025;BME280;72958;53.326;-1.496;2024-03-08T00:54:49;99495.16;;;7.51;44.47
83025;BME280;72958;53.326;-1.496;2024-03-08T00:57:28;99492.37;;;7.86;43.61
83025;BME280;72958;53.326;-1.496;2024-03-08T00:59:56;99489.19;;;7.51;43.85
83025;BME280;72958;53.326;-1.496;2024-03-08T01:02:43;99481.76;;;7.44;44.56
83025;BME280;72958;53.326;-1.496;2024-03-08T01:05:10;99474.97;;;7.39;44.40
83025;BME280;72958;53.326;-1.496;2024-03-08T01:07:43;99473.19;;;7.61;44.44
83025;BME280;72958;53.326;-1.496;2024-03-08T01:10:10;99475.83;;;7.64;44.20
83025;BME280;72958;53.326;-1.496;2024-03-08T01:12:38;99472.18;;;7.75;43.64
83025;BME280;72958;53.326;-1.496;2024-03-08T01:15:50;99460.73;;;8.11;43.23
83025;BME280;72958;53.326;-1.496;2024-03-08T01:18:20;99459.79;;;8.39;42.75
83025;BME280;72958;53.326;-1.496;2024-03-08T01:21:16;99453.23;;;8.26;43.17
83025;BME280;72958;53.326;-1.496;2024-03-08T01:24:16;99446.60;;;7.82;43.81
83025;BME280;72958;53.326;-1.496;2024-03-08T01:26:48;99443.76;;;8.31;43.41
83025;BME280;72958;53.326;-1.496;2024-03-08T01:29:19;99439.89;;;7.91;44.07
83025;BME280;72958;53.326;-1.496;2024-03-08T01:32:00;99435.36;;;8.20;43.67
83025;BME280;72958;53.326;-1.496;2024-03-08T01:34:37;99430.93;;;8.52;44.16
83025;BME280;72958;53.326;-1.496;2024-03-08T01:37:43;99432.85;;;8.24;44.41
83025;BME280;72958;53.326;-1.496;2024-03-08T01:40:32;99428.65;;;8.06;45.54
83025;BME280;72958;53.326;-1.496;2024-03-08T01:45:34;99419.40;;;7.91;45.36
83025;BME280;72958;53.326;-1.496;2024-03-08T01:48:04;99416.67;;;8.21;44.45
83025;BME280;72958;53.326;-1.496;2024-03-08T01:50:30;99416.14;;;8.10;45.57
83025;BME280;72958;53.326;-1.496;2024-03-08T01:52:59;99414.86;;;8.12;45.00
83025;BME280;72958;53.326;-1.496;2024-03-08T01:55:28;99410.37;;;8.00;45.51
83025;BME280;72958;53.326;-1.496;2024-03-08T01:58:21;99409.55;;;8.36;44.68
83025;BME280;72958;53.326;-1.496;2024-03-08T02:01:11;99405.38;;;8.02;44.95
83025;BME280;72958;53.326;-1.496;2024-03-08T02:03:39;99402.10;;;8.69;44.28
83025;BME280;72958;53.326;-1.496;2024-03-08T02:06:09;99398.57;;;8.48;44.93
83025;BME280;72958;53.326;-1.496;2024-03-08T02:08:44;99392.99;;;7.76;45.67
83025;BME280;72958;53.326;-1.496;2024-03-08T02:11:42;99387.55;;;8.31;45.44
83025;BME280;72958;53.326;-1.496;2024-03-08T02:14:31;99380.88;;;8.22;45.94
83025;BME280;72958;53.326;-1.496;2024-03-08T02:17:15;99380.58;;;7.83;45.86
83025;BME280;72958;53.326;-1.496;2024-03-08T02:20:04;99376.16;;;7.98;46.53
83025;BME280;72958;53.326;-1.496;2024-03-08T02:22:57;99373.08;;;7.76;46.14
83025;BME280;72958;53.326;-1.496;2024-03-08T02:25:41;99362.81;;;8.31;46.02
83025;BME280;72958;53.326;-1.496;2024-03-08T02:28:39;99361.23;;;8.12;45.98
83025;BME280;72958;53.326;-1.496;2024-03-08T02:31:16;99356.61;;;8.35;45.71
83025;BME280;72958;53.326;-1.496;2024-03-08T02:33:43;99350.46;;;8.40;45.13
83025;BME280;72958;53.326;-1.496;2024-03-08T02:36:57;99350.25;;;8.44;45.19
83025;BME280;72958;53.326;-1.496;2024-03-08T02:39:23;99343.51;;;8.29;45.63
83025;BME280;72958;53.326;-1.496;2024-03-08T02:41:49;99342.12;;;8.31;45.43
83025;BME280;72958;53.326;-1.496;2024-03-08T02:44:43;99338.63;;;8.29;45.44
83025;BME280;72958;53.326;-1.496;2024-03-08T02:48:13;99334.68;;;8.18;45.23
83025;BME280;72958;53.326;-1.496;2024-03-08T02:51:00;99329.46;;;7.99;45.88
83025;BME280;72958;53.326;-1.496;2024-03-08T02:53:45;99325.72;;;7.99;46.60
83025;BME280;72958;53.326;-1.496;2024-03-08T02:56:10;99320.37;;;8.02;46.38
83025;BME280;72958;53.326;-1.496;2024-03-08T02:59:00;99319.77;;;7.69;46.97
83025;BME280;72958;53.326;-1.496;2024-03-08T03:01:37;99311.74;;;8.19;46.53
83025;BME280;72958;53.326;-1.496;2024-03-08T03:04:32;99312.70;;;7.08;48.30
83025;BME280;72958;53.326;-1.496;2024-03-08T03:07:10;99308.48;;;6.90;48.60
83025;BME280;72958;53.326;-1.496;2024-03-08T03:09:49;99306.24;;;7.41;47.97
83025;BME280;72958;53.326;-1.496;2024-03-08T03:12:15;99303.15;;;7.51;47.85
83025;BME280;72958;53.326;-1.496;2024-03-08T03:14:47;99300.66;;;7.69;47.54
83025;BME280;72958;53.326;-1.496;2024-03-08T03:17:41;99298.50;;;7.72;47.40
83025;BME280;72958;53.326;-1.496;2024-03-08T03:20:12;99293.52;;;7.64;47.76
83025;BME280;72958;53.326;-1.496;2024-03-08T03:22:37;99290.37;;;7.65;47.32
83025;BME280;72958;53.326;-1.496;2024-03-08T03:25:03;99285.90;;;7.92;46.70
83025;BME280;72958;53.326;-1.496;2024-03-08T03:27:36;99285.65;;;8.27;46.30
83025;BME280;72958;53.326;-1.496;2024-03-08T03:31:22;99277.89;;;8.24;45.62
83025;BME280;72958;53.326;-1.496;2024-03-08T03:33:57;99277.35;;;8.10;45.90
83025;BME280;72958;53.326;-1.496;2024-03-08T03:36:24;99278.64;;;8.01;46.36
83025;BME280;72958;53.326;-1.496;2024-03-08T03:39:01;99275.87;;;8.01;46.23
83025;BME280;72958;53.326;-1.496;2024-03-08T03:41:31;99277.12;;;8.27;45.99
83025;BME280;72958;53.326;-1.496;2024-03-08T03:44:18;99273.51;;;7.87;46.22
83025;BME280;72958;53.326;-1.496;2024-03-08T03:46:48;99268.69;;;8.21;46.38
83025;BME280;72958;53.326;-1.496;2024-03-08T03:49:14;99266.42;;;7.91;46.39
83025;BME280;72958;53.326;-1.496;2024-03-08T03:51:40;99265.63;;;7.69;47.50
83025;BME280;72958;53.326;-1.496;2024-03-08T03:54:11;99263.00;;;7.69;48.61
83025;BME280;72958;53.326;-1.496;2024-03-08T03:56:46;99259.95;;;7.39;48.04
83025;BME280;72958;53.326;-1.496;2024-03-08T03:59:18;99258.41;;;7.11;49.20
83025;BME280;72958;53.326;-1.496;2024-03-08T04:02:33;99254.09;;;7.27;48.57
83025;BME280;72958;53.326;-1.496;2024-03-08T04:05:01;99249.15;;;7.26;48.14
83025;BME280;72958;53.326;-1.496;2024-03-08T04:07:31;99247.19;;;7.64;47.74
83025;BME280;72958;53.326;-1.496;2024-03-08T04:10:40;99245.17;;;7.58;46.89
83025;BME280;72958;53.326;-1.496;2024-03-08T04:13:26;99241.99;;;7.49;47.91
83025;BME280;72958;53.326;-1.496;2024-03-08T04:15:51;99237.51;;;7.15;47.18
83025;BME280;72958;53.326;-1.496;2024-03-08T04:18:19;99237.79;;;8.00;46.66
83025;BME280;72958;53.326;-1.496;2024-03-08T04:20:45;99237.34;;;7.64;46.74
83025;BME280;72958;53.326;-1.496;2024-03-08T04:23:13;99233.67;;;8.23;45.51
83025;BME280;72958;53.326;-1.496;2024-03-08T04:25:38;99232.83;;;8.16;45.32
83025;BME280;72958;53.326;-1.496;2024-03-08T04:28:19;99232.60;;;8.22;46.34
83025;BME280;72958;53.326;-1.496;2024-03-08T04:30:49;99225.15;;;7.64;46.91
83025;BME280;72958;53.326;-1.496;2024-03-08T04:33:34;99224.86;;;8.06;46.35
83025;BME280;72958;53.326;-1.496;2024-03-08T04:35:59;99221.80;;;8.11;46.03
83025;BME280;72958;53.326;-1.496;2024-03-08T04:38:32;99221.31;;;8.26;45.78
83025;BME280;72958;53.326;-1.496;2024-03-08T04:41:00;99220.76;;;7.99;45.80
83025;BME280;72958;53.326;-1.496;2024-03-08T04:43:32;99218.27;;;8.25;45.94
83025;BME280;72958;53.326;-1.496;2024-03-08T04:46:23;99214.29;;;8.20;46.76
83025;BME280;72958;53.326;-1.496;2024-03-08T04:48:49;99210.28;;;7.63;47.38
83025;BME280;72958;53.326;-1.496;2024-03-08T04:51:49;99208.88;;;8.37;46.30
83025;BME280;72958;53.326;-1.496;2024-03-08T04:54:21;99210.21;;;8.12;46.51
83025;BME280;72958;53.326;-1.496;2024-03-08T04:56:48;99209.68;;;8.59;45.79
83025;BME280;72958;53.326;-1.496;2024-03-08T04:59:33;99208.91;;;8.77;45.40
83025;BME280;72958;53.326;-1.496;2024-03-08T05:02:36;99207.63;;;8.68;45.85
83025;BME280;72958;53.326;-1.496;2024-03-08T05:05:06;99205.85;;;8.03;46.53
83025;BME280;72958;53.326;-1.496;2024-03-08T05:07:36;99203.39;;;7.83;46.97
83025;BME280;72958;53.326;-1.496;2024-03-08T05:10:19;99197.70;;;7.82;46.65
83025;BME280;72958;53.326;-1.496;2024-03-08T05:12:49;99199.01;;;7.67;46.92
83025;BME280;72958;53.326;-1.496;2024-03-08T05:15:20;99195.49;;;7.96;47.12
83025;BME280;72958;53.326;-1.496;2024-03-08T05:17:49;99192.11;;;8.12;46.97
83025;BME280;72958;53.326;-1.496;2024-03-08T05:20:15;99195.57;;;7.93;47.05
83025;BME280;72958;53.326;-1.496;2024-03-08T05:23:21;99194.58;;;7.62;47.39
83025;BME280;72958;53.326;-1.496;2024-03-08T05:25:59;99189.71;;;7.67;47.80
83025;BME280;72958;53.326;-1.496;2024-03-08T05:28:27;99186.16;;;8.07;47.18
83025;BME280;72958;53.326;-1.496;2024-03-08T05:31:09;99188.94;;;8.04;47.20
83025;BME280;72958;53.326;-1.496;2024-03-08T05:34:28;99182.10;;;7.76;47.26
83025;BME280;72958;53.326;-1.496;2024-03-08T05:37:03;99180.98;;;6.84;48.14
83025;BME280;72958;53.326;-1.496;2024-03-08T05:39:40;99176.69;;;8.13;47.05
83025;BME280;72958;53.326;-1.496;2024-03-08T05:42:10;99174.41;;;7.53;47.67
83025;BME280;72958;53.326;-1.496;2024-03-08T05:44:49;99178.67;;;7.59;47.74
83025;BME280;72958;53.326;-1.496;2024-03-08T05:47:18;99175.44;;;8.42;46.26
83025;BME280;72958;53.326;-1.496;2024-03-08T05:50:10;99175.47;;;7.55;47.22
83025;BME280;72958;53.326;-1.496;2024-03-08T05:52:35;99173.49;;;7.38;47.79
83025;BME280;72958;53.326;-1.496;2024-03-08T05:55:14;99175.66;;;7.01;48.75
83025;BME280;72958;53.326;-1.496;2024-03-08T05:58:07;99171.32;;;7.55;47.86
83025;BME280;72958;53.326;-1.496;2024-03-08T06:00:45;99165.09;;;7.24;48.29
83025;BME280;72958;53.326;-1.496;2024-03-08T06:03:37;99161.21;;;8.07;46.91
83025;BME280;72958;53.326;-1.496;2024-03-08T06:06:04;99158.24;;;7.23;48.34
83025;BME280;72958;53.326;-1.496;2024-03-08T06:08:32;99157.52;;;7.49;47.83
83025;BME280;72958;53.326;-1.496;2024-03-08T06:11:12;99153.07;;;8.02;46.54
83025;BME280;72958;53.326;-1.496;2024-03-08T06:14:34;99148.09;;;8.58;45.73
83025;BME280;72958;53.326;-1.496;2024-03-08T06:17:49;99147.20;;;8.29;46.25
83025;BME280;72958;53.326;-1.496;2024-03-08T06:20:33;99146.63;;;8.24;45.52
83025;BME280;72958;53.326;-1.496;2024-03-08T06:23:16;99147.38;;;8.51;45.42
83025;BME280;72958;53.326;-1.496;2024-03-08T06:25:42;99148.88;;;8.22;45.90
83025;BME280;72958;53.326;-1.496;2024-03-08T06:28:19;99148.80;;;7.34;47.53
83025;BME280;72958;53.326;-1.496;2024-03-08T06:30:49;99143.34;;;8.16;46.45
83025;BME280;72958;53.326;-1.496;2024-03-08T06:33:43;99146.23;;;8.21;45.59
83025;BME280;72958;53.326;-1.496;2024-03-08T06:36:09;99141.18;;;7.82;46.27
83025;BME280;72958;53.326;-1.496;2024-03-08T06:38:58;99141.34;;;7.40;46.94
83025;BME280;72958;53.326;-1.496;2024-03-08T06:41:29;99139.78;;;7.67;46.79
83025;BME280;72958;53.326;-1.496;2024-03-08T06:44:00;99139.90;;;8.50;45.88
83025;BME280;72958;53.326;-1.496;2024-03-08T06:46:25;99143.36;;;8.19;45.71
83025;BME280;72958;53.326;-1.496;2024-03-08T06:50:29;99140.63;;;7.87;46.81
83025;BME280;72958;53.326;-1.496;2024-03-08T06:53:19;99139.14;;;7.51;46.66
83025;BME280;72958;53.326;-1.496;2024-03-08T06:55:46;99139.45;;;7.63;47.22
83025;BME280;72958;53.326;-1.496;2024-03-08T06:58:37;99135.31;;;8.11;46.34
83025;BME280;72958;53.326;-1.496;2024-03-08T07:01:03;99130.58;;;7.49;47.21
83025;BME280;72958;53.326;-1.496;2024-03-08T07:03:38;99134.89;;;6.94;48.77
83025;BME280;72958;53.326;-1.496;2024-03-08T07:06:16;99131.70;;;7.52;47.54
83025;BME280;72958;53.326;-1.496;2024-03-08T07:09:26;99128.49;;;7.74;47.88
83025;BME280;72958;53.326;-1.496;2024-03-08T07:11:54;99124.93;;;7.64;48.06
83025;BME280;72958;53.326;-1.496;2024-03-08T07:14:43;99124.35;;;6.63;49.01
83025;BME280;72958;53.326;-1.496;2024-03-08T07:17:50;99118.21;;;7.37;47.39
83025;BME280;72958;53.326;-1.496;2024-03-08T07:20:42;99120.74;;;6.89;48.86
83025;BME280;72958;53.326;-1.496;2024-03-08T07:24:05;99116.32;;;7.56;48.10
83025;BME280;72958;53.326;-1.496;2024-03-08T07:26:38;99116.12;;;7.17;48.70
83025;BME280;72958;53.326;-1.496;2024-03-08T07:29:40;99110.35;;;7.64;47.30
83025;BME280;72958;53.326;-1.496;2024-03-08T07:32:39;99110.55;;;7.84;47.13
83025;BME280;72958;53.326;-1.496;2024-03-08T07:35:06;99115.88;;;7.08;48.91
83025;BME280;72958;53.326;-1.496;2024-03-08T07:38:04;99109.47;;;7.34;48.46
83025;BME280;72958;53.326;-1.496;2024-03-08T07:40:36;99108.68;;;6.67;49.75
83025;BME280;72958;53.326;-1.496;2024-03-08T07:43:10;99103.57;;;6.66;49.30
83025;BME280;72958;53.326;-1.496;2024-03-08T07:45:37;99102.90;;;7.52;48.16
83025;BME280;72958;53.326;-1.496;2024-03-08T07:48:14;99100.15;;;6.87;48.71
83025;BME280;72958;53.326;-1.496;2024-03-08T07:50:44;99101.18;;;7.07;49.11
83025;BME280;72958;53.326;-1.496;2024-03-08T07:53:23;99094.43;;;7.02;48.20
83025;BME280;72958;53.326;-1.496;2024-03-08T07:55:50;99095.44;;;7.13;48.48
83025;BME280;72958;53.326;-1.496;2024-03-08T07:58:16;99095.94;;;6.89;48.40
83025;BME280;72958;53.326;-1.496;2024-03-08T08:00:42;99097.61;;;7.00;48.06
83025;BME280;72958;53.326;-1.496;2024-03-08T08:03:16;99096.73;;;6.38;49.00
83025;BME280;72958;53.326;-1.496;2024-03-08T08:05:49;99087.97;;;6.93;48.22
83025;BME280;72958;53.326;-1.496;2024-03-08T08:08:50;99079.34;;;7.31;48.42
83025;BME280;72958;53.326;-1.496;2024-03-08T08:11:42;99077.12;;;7.52;46.61
83025;BME280;72958;53.326;-1.496;2024-03-08T08:14:24;99075.12;;;7.85;46.46
83025;BME280;72958;53.326;-1.496;2024-03-08T08:16:55;99073.11;;;7.06;47.32
83025;BME280;72958;53.326;-1.496;2024-03-08T08:19:48;99074.87;;;7.00;48.02
83025;BME280;72958;53.326;-1.496;2024-03-08T08:22:30;99078.92;;;6.99;48.63
83025;BME280;72958;53.326;-1.496;2024-03-08T08:24:57;99068.59;;;7.52;47.55
83025;BME280;72958;53.326;-1.496;2024-03-08T08:27:27;99073.01;;;7.19;48.51
83025;BME280;72958;53.326;-1.496;2024-03-08T08:30:12;99063.15;;;7.28;47.86
83025;BME280;72958;53.326;-1.496;2024-03-08T08:32:50;99066.64;;;6.73;49.08
83025;BME280;72958;53.326;-1.496;2024-03-08T08:35:17;99062.65;;;7.03;47.70
83025;BME280;72958;53.326;-1.496;2024-03-08T08:37:59;99053.78;;;7.68;46.56
83025;BME280;72958;53.326;-1.496;2024-03-08T08:40:25;99051.50;;;6.86;47.40
83025;BME280;72958;53.326;-1.496;2024-03-08T08:43:01;99053.23;;;7.80;46.36
83025;BME280;72958;53.326;-1.496;2024-03-08T08:46:01;99049.53;;;7.29;46.88
83025;BME280;72958;53.326;-1.496;2024-03-08T08:48:29;99048.74;;;7.16;47.74
83025;BME280;72958;53.326;-1.496;2024-03-08T08:51:15;99042.77;;;8.05;46.72
83025;BME280;72958;53.326;-1.496;2024-03-08T08:54:30;99041.04;;;7.50;46.80
83025;BME280;72958;53.326;-1.496;2024-03-08T08:57:01;99041.23;;;7.89;45.90
83025;BME280;72958;53.326;-1.496;2024-03-08T08:59:30;99037.30;;;7.32;46.95
83025;BME280;72958;53.326;-1.496;2024-03-08T09:02:00;99039.65;;;7.14;47.54
83025;BME280;72958;53.326;-1.496;2024-03-08T09:04:30;99040.12;;;7.18;47.90
83025;BME280;72958;53.326;-1.496;2024-03-08T09:07:08;99036.11;;;6.92;47.86
83025;BME280;72958;53.326;-1.496;2024-03-08T09:09:46;99035.46;;;7.89;46.71
83025;BME280;72958;53.326;-1.496;2024-03-08T09:12:11;99036.79;;;7.95;45.38
83025;BME280;72958;53.326;-1.496;2024-03-08T09:14:42;99020.80;;;7.79;46.78
83025;BME280;72958;53.326;-1.496;2024-03-08T09:17:10;99018.34;;;7.32;46.96
83025;BME280;72958;53.326;-1.496;2024-03-08T09:19:50;99018.55;;;7.80;46.64
83025;BME280;72958;53.326;-1.496;2024-03-08T09:22:21;99016.48;;;7.67;46.02
83025;BME280;72958;53.326;-1.496;2024-03-08T09:25:24;99006.60;;;7.53;45.47
83025;BME280;72958;53.326;-1.496;2024-03-08T09:28:07;99005.81;;;8.45;44.41
83025;BME280;72958;53.326;-1.496;2024-03-08T09:31:03;99001.39;;;8.60;43.59
83025;BME280;72958;53.326;-1.496;2024-03-08T09:33:34;98997.58;;;8.64;44.06
83025;BME280;72958;53.326;-1.496;2024-03-08T09:36:30;98991.53;;;9.01;42.83
83025;BME280;72958;53.326;-1.496;2024-03-08T09:38:56;98994.28;;;8.26;43.40
83025;BME280;72958;53.326;-1.496;2024-03-08T09:41:26;98983.29;;;8.47;43.62
83025;BME280;72958;53.326;-1.496;2024-03-08T09:44:23;98977.58;;;9.31;41.67
83025;BME280;72958;53.326;-1.496;2024-03-08T09:46:52;98978.40;;;8.88;42.53
83025;BME280;72958;53.326;-1.496;2024-03-08T09:49:19;98978.03;;;9.19;42.55
83025;BME280;72958;53.326;-1.496;2024-03-08T09:52:05;98977.32;;;8.72;44.01
83025;BME280;72958;53.326;-1.496;2024-03-08T09:54:35;98967.87;;;8.68;42.81
83025;BME280;72958;53.326;-1.496;2024-03-08T09:57:10;98966.42;;;8.98;42.61
83025;BME280;72958;53.326;-1.496;2024-03-08T09:59:50;98967.79;;;9.38;41.18
83025;BME280;72958;53.326;-1.496;2024-03-08T10:02:17;98963.01;;;9.03;42.61
83025;BME280;72958;53.326;-1.496;2024-03-08T10:05:49;98957.43;;;7.90;44.08
83025;BME280;72958;53.326;-1.496;2024-03-08T10:08:26;98951.16;;;8.92;42.32
83025;BME280;72958;53.326;-1.496;2024-03-08T10:11:01;98947.00;;;9.37;41.29
83025;BME280;72958;53.326;-1.496;2024-03-08T10:13:36;98941.81;;;9.31;41.06
83025;BME280;72958;53.326;-1.496;2024-03-08T10:16:04;98936.52;;;9.32;40.96
83025;BME280;72958;53.326;-1.496;2024-03-08T10:18:29;98930.42;;;9.56;39.97
83025;BME280;72958;53.326;-1.496;2024-03-08T10:21:04;98933.82;;;8.92;41.37
83025;BME280;72958;53.326;-1.496;2024-03-08T10:23:50;98929.02;;;9.22;41.27
83025;BME280;72958;53.326;-1.496;2024-03-08T10:26:17;98929.74;;;8.45;41.58
83025;BME280;72958;53.326;-1.496;2024-03-08T10:28:50;98925.43;;;9.14;40.53
83025;BME280;72958;53.326;-1.496;2024-03-08T10:31:18;98921.97;;;9.32;40.85
83025;BME280;72958;53.326;-1.496;2024-03-08T10:33:48;98924.45;;;8.72;41.90
83025;BME280;72958;53.326;-1.496;2024-03-08T10:36:14;98925.44;;;8.56;41.48
83025;BME280;72958;53.326;-1.496;2024-03-08T10:38:41;98917.56;;;9.06;41.07
83025;BME280;72958;53.326;-1.496;2024-03-08T10:41:12;98919.49;;;9.17;40.18
83025;BME280;72958;53.326;-1.496;2024-03-08T10:44:10;98917.38;;;9.79;39.97
83025;BME280;72958;53.326;-1.496;2024-03-08T10:46:30;98917.18;;;8.80;40.37
83025;BME280;72958;53.326;-1.496;2024-03-08T10:48:50;98914.99;;;9.12;41.52
83025;BME280;72958;53.326;-1.496;2024-03-08T10:51:19;98914.76;;;8.94;40.84
83025;BME280;72958;53.326;-1.496;2024-03-08T10:54:05;98912.19;;;8.88;40.40
83025;BME280;72958;53.326;-1.496;2024-03-08T10:56:44;98910.91;;;7.78;43.94
83025;BME280;72958;53.326;-1.496;2024-03-08T10:59:13;98898.00;;;8.53;41.96
83025;BME280;72958;53.326;-1.496;2024-03-08T11:01:43;98903.29;;;8.53;42.23
83025;BME280;72958;53.326;-1.496;2024-03-08T11:04:17;98891.36;;;9.01;41.34
83025;BME280;72958;53.326;-1.496;2024-03-08T11:06:43;98893.58;;;8.27;42.46
83025;BME280;72958;53.326;-1.496;2024-03-08T11:09:10;98892.19;;;8.44;42.09
83025;BME280;72958;53.326;-1.496;2024-03-08T11:11:33;98884.29;;;9.20;40.98
83025;BME280;72958;53.326;-1.496;2024-03-08T11:16:48;98881.52;;;8.88;40.05
83025;BME280;72958;53.326;-1.496;2024-03-08T11:19:26;98879.69;;;8.52;40.06
83025;BME280;72958;53.326;-1.496;2024-03-08T11:22:22;98879.39;;;8.61;40.36
83025;BME280;72958;53.326;-1.496;2024-03-08T11:25:02;98874.96;;;8.05;41.30
83025;BME280;72958;53.326;-1.496;2024-03-08T11:27:52;98874.76;;;8.45;40.26
83025;BME280;72958;53.326;-1.496;2024-03-08T11:30:23;98876.80;;;8.44;40.19
83025;BME280;72958;53.326;-1.496;2024-03-08T11:32:54;98870.77;;;9.03;39.10
83025;BME280;72958;53.326;-1.496;2024-03-08T11:35:34;98869.63;;;8.57;38.76
83025;BME280;72958;53.326;-1.496;2024-03-08T11:38:19;98867.23;;;9.20;38.71
83025;BME280;72958;53.326;-1.496;2024-03-08T11:40:46;98869.86;;;8.82;40.46
83025;BME280;72958;53.326;-1.496;2024-03-08T11:43:17;98868.82;;;8.26;41.99
83025;BME280;72958;53.326;-1.496;2024-03-08T11:45:46;98865.99;;;8.34;42.33
83025;BME280;72958;53.326;-1.496;2024-03-08T11:48:32;98861.24;;;8.61;41.01
83025;BME280;72958;53.326;-1.496;2024-03-08T11:51:06;98859.88;;;8.28;41.34
83025;BME280;72958;53.326;-1.496;2024-03-08T11:53:37;98854.96;;;7.96;41.76
83025;BME280;72958;53.326;-1.496;2024-03-08T11:56:07;98847.32;;;8.86;39.99
83025;BME280;72958;53.326;-1.496;2024-03-08T11:58:52;98846.69;;;9.57;39.30
83025;BME280;72958;53.326;-1.496;2024-03-08T12:01:27;98837.96;;;9.22;39.23
83025;BME280;72958;53.326;-1.496;2024-03-08T12:04:20;98829.49;;;9.58;38.66
83025;BME280;72958;53.326;-1.496;2024-03-08T12:07:12;98832.64;;;9.10;39.19
83025;BME280;72958;53.326;-1.496;2024-03-08T12:10:14;98819.83;;;10.15;37.29
83025;BME280;72958;53.326;-1.496;2024-03-08T12:12:27;98815.20;;;10.46;36.79
83025;BME280;72958;53.326;-1.496;2024-03-08T12:15:18;98817.84;;;10.54;36.63
83025;BME280;72958;53.326;-1.496;2024-03-08T12:17:53;98802.62;;;10.24;36.28
83025;BME280;72958;53.326;-1.496;2024-03-08T12:20:37;98797.51;;;10.84;36.25
83025;BME280;72958;53.326;-1.496;2024-03-08T12:24:04;98794.37;;;10.97;34.82
83025;BME280;72958;53.326;-1.496;2024-03-08T12:26:49;98785.75;;;11.39;34.08
83025;BME280;72958;53.326;-1.496;2024-03-08T12:29:30;98784.56;;;11.54;33.55
83025;BME280;72958;53.326;-1.496;2024-03-08T12:32:36;98777.77;;;11.40;34.51
83025;BME280;72958;53.326;-1.496;2024-03-08T12:36:14;98776.38;;;11.31;34.75
83025;BME280;72958;53.326;-1.496;2024-03-08T12:39:22;98769.03;;;11.11;33.43
83025;BME280;72958;53.326;-1.496;2024-03-08T12:42:23;98769.33;;;11.48;33.32
83025;BME280;72958;53.326;-1.496;2024-03-08T12:44:52;98764.93;;;11.48;33.39
83025;BME280;72958;53.326;-1.496;2024-03-08T12:47:24;98763.67;;;12.66;32.33
83025;BME280;72958;53.326;-1.496;2024-03-08T12:50:20;98755.19;;;12.52;32.56
83025;BME280;72958;53.326;-1.496;2024-03-08T12:52:49;98757.08;;;11.07;33.58
83025;BME280;72958;53.326;-1.496;2024-03-08T12:55:33;98760.46;;;11.19;34.69
83025;BME280;72958;53.326;-1.496;2024-03-08T12:58:29;98751.06;;;11.53;32.83
83025;BME280;72958;53.326;-1.496;2024-03-08T13:01:03;98739.18;;;11.11;34.49
83025;BME280;72958;53.326;-1.496;2024-03-08T13:03:47;98742.35;;;10.13;37.10
83025;BME280;72958;53.326;-1.496;2024-03-08T13:06:14;98738.46;;;10.64;35.62
83025;BME280;72958;53.326;-1.496;2024-03-08T13:08:48;98733.60;;;11.22;35.29
83025;BME280;72958;53.326;-1.496;2024-03-08T13:11:29;98731.35;;;9.83;36.35
83025;BME280;72958;53.326;-1.496;2024-03-08T13:14:08;98725.07;;;11.03;35.28
83025;BME280;72958;53.326;-1.496;2024-03-08T13:17:08;98721.78;;;11.37;34.08
83025;BME280;72958;53.326;-1.496;2024-03-08T13:19:43;98725.31;;;11.82;34.34
83025;BME280;72958;53.326;-1.496;2024-03-08T13:22:08;98716.88;;;11.63;34.69
83025;BME280;72958;53.326;-1.496;2024-03-08T13:24:39;98716.54;;;11.05;35.61
83025;BME280;72958;53.326;-1.496;2024-03-08T13:27:30;98712.96;;;9.85;36.63
83025;BME280;72958;53.326;-1.496;2024-03-08T13:29:59;98711.45;;;10.41;36.89
83025;BME280;72958;53.326;-1.496;2024-03-08T13:32:25;98708.36;;;10.30;36.60
83025;BME280;72958;53.326;-1.496;2024-03-08T13:35:32;98705.21;;;11.09;35.47
83025;BME280;72958;53.326;-1.496;2024-03-08T13:38:18;98703.83;;;11.17;35.39
83025;BME280;72958;53.326;-1.496;2024-03-08T13:40:50;98697.54;;;11.15;36.24
83025;BME280;72958;53.326;-1.496;2024-03-08T13:43:49;98698.57;;;11.35;36.32
83025;BME280;72958;53.326;-1.496;2024-03-08T13:46:25;98690.57;;;10.75;36.38
83025;BME280;72958;53.326;-1.496;2024-03-08T13:49:14;98690.52;;;9.30;38.59
83025;BME280;72958;53.326;-1.496;2024-03-08T13:52:46;98683.37;;;9.75;38.54
83025;BME280;72958;53.326;-1.496;2024-03-08T13:55:39;98679.91;;;9.44;39.19
83025;BME280;72958;53.326;-1.496;2024-03-08T13:58:36;98679.25;;;9.39;39.00
83025;BME280;72958;53.326;-1.496;2024-03-08T14:01:11;98671.93;;;9.25;39.12
83025;BME280;72958;53.326;-1.496;2024-03-08T14:03:37;98668.19;;;9.77;38.09
83025;BME280;72958;53.326;-1.496;2024-03-08T14:06:25;98671.76;;;9.61;39.25
83025;BME280;72958;53.326;-1.496;2024-03-08T14:09:49;98663.83;;;9.78;39.73
83025;BME280;72958;53.326;-1.496;2024-03-08T14:12:53;98657.77;;;8.34;41.02
83025;BME280;72958;53.326;-1.496;2024-03-08T14:16:09;98654.76;;;9.37;39.94